Time;durP1;ratioP1;P1;durP2;ratioP2;P2;SDS_P1;SDS_P2;PMS_P1;PMS_P2;Temp;Humidity;BMP_temperature;BMP_pressure;BME280_temperature;BME280_humidity;BME280_pressure;Samples;Min_cycle;Max_cycle;Signal;HPM_P1;HPM_P2
2023/05/09 00:00:11;;;;;;;12.10;10.30;;;15.30;99.90;;;;;;5058683;28;20072;-72
2023/05/09 00:02:40;;;;;;;12.65;9.77;;;15.20;99.90;;;;;;5064741;28;20041;-71
2023/05/09 00:05:07;;;;;;;11.77;9.75;;;15.30;99.90;;;;;;5038150;28;20397;-72
2023/05/09 00:07:33;;;;;;;12.63;9.50;;;15.20;99.90;;;;;;5069443;28;20457;-71
2023/05/09 00:09:59;;;;;;;11.40;8.85;;;15.20;99.90;;;;;;5041605;28;20036;-71
2023/05/09 00:12:27;;;;;;;12.48;8.68;;;15.20;99.90;;;;;;5076323;28;20049;-72
2023/05/09 00:14:53;;;;;;;10.10;7.88;;;15.10;99.90;;;;;;5069317;28;20032;-72
2023/05/09 00:17:21;;;;;;;10.68;8.15;;;15.10;99.90;;;;;;5064806;28;20051;-72
2023/05/09 00:19:48;;;;;;;9.57;7.53;;;15.10;99.90;;;;;;5061103;28;20045;-72
2023/05/09 00:22:15;;;;;;;9.65;7.43;;;15.10;99.90;;;;;;5062236;28;20065;-72
2023/05/09 00:24:42;;;;;;;8.95;7.50;;;15.10;99.90;;;;;;5042452;28;20041;-71
2023/05/09 00:27:08;;;;;;;9.98;6.93;;;15.10;99.90;;;;;;5047004;28;20512;-72
2023/05/09 00:29:34;;;;;;;8.88;7.30;;;15.00;99.90;;;;;;5061697;28;20055;-72
2023/05/09 00:32:00;;;;;;;9.88;7.30;;;15.10;99.90;;;;;;5047355;28;20056;-71
2023/05/09 00:34:26;;;;;;;9.63;7.50;;;15.00;99.90;;;;;;5044834;28;20082;-71
2023/05/09 00:36:51;;;;;;;10.98;7.95;;;14.90;99.90;;;;;;5062749;28;20071;-71
2023/05/09 00:39:17;;;;;;;8.30;6.40;;;14.90;99.90;;;;;;5039591;28;20495;-72
2023/05/09 00:41:43;;;;;;;8.80;7.40;;;14.80;99.90;;;;;;5032535;28;20064;-71
2023/05/09 00:44:09;;;;;;;8.35;7.00;;;14.80;99.90;;;;;;5057005;28;20037;-72
2023/05/09 00:46:35;;;;;;;8.77;7.10;;;14.80;99.90;;;;;;5041841;28;20041;-72
2023/05/09 00:49:00;;;;;;;9.15;7.30;;;14.80;99.90;;;;;;5040665;28;20076;-71
2023/05/09 00:51:27;;;;;;;8.13;6.78;;;14.80;99.90;;;;;;5067615;28;20044;-71
2023/05/09 00:53:53;;;;;;;7.35;6.38;;;14.80;99.90;;;;;;5069940;28;20230;-71
2023/05/09 00:56:19;;;;;;;9.63;6.72;;;14.70;99.90;;;;;;5040457;28;20109;-71
2023/05/09 00:58:44;;;;;;;9.27;6.70;;;14.70;99.90;;;;;;5056950;28;20041;-71
2023/05/09 01:01:10;;;;;;;9.85;7.05;;;14.60;99.90;;;;;;5040435;28;20041;-71
2023/05/09 01:03:38;;;;;;;8.75;6.78;;;14.60;99.90;;;;;;5071622;28;20076;-71
2023/05/09 01:06:18;;;;;;;8.23;6.30;;;14.60;99.90;;;;;;5042783;28;20037;-71
2023/05/09 01:09:14;;;;;;;7.43;6.30;;;14.50;99.90;;;;;;5043657;28;20119;-72
2023/05/09 01:11:51;;;;;;;9.27;6.93;;;14.50;99.90;;;;;;5061778;28;20513;-72
2023/05/09 01:14:34;;;;;;;8.18;6.63;;;14.40;99.90;;;;;;5067119;28;20040;-71
2023/05/09 01:17:10;;;;;;;8.68;7.03;;;14.40;99.90;;;;;;5040310;28;20057;-69
2023/05/09 01:19:55;;;;;;;;;;;14.50;99.90;;;;;;5052166;28;20041;-69
2023/05/09 01:22:28;;;;;;;9.23;6.30;;;14.40;99.90;;;;;;5058802;28;19921;-70
2023/05/09 01:25:31;;;;;;;8.00;6.53;;;14.30;99.90;;;;;;5041362;28;20049;-69
2023/05/09 01:28:06;;;;;;;9.50;6.55;;;14.20;99.90;;;;;;5056277;28;20045;-70
2023/05/09 01:30:34;;;;;;;8.20;6.80;;;14.10;99.90;;;;;;5060757;28;20037;-70
2023/05/09 01:33:06;;;;;;;8.65;6.53;;;14.00;99.90;;;;;;5067352;28;20064;-69
2023/05/09 01:35:34;;;;;;;7.80;6.50;;;13.90;99.90;;;;;;5043943;28;20037;-71
2023/05/09 01:38:03;;;;;;;8.85;6.63;;;13.90;99.90;;;;;;5069717;28;20052;-71
2023/05/09 01:40:32;;;;;;;8.68;6.80;;;14.00;99.90;;;;;;5067691;28;20075;-71
2023/05/09 01:43:04;;;;;;;8.43;6.97;;;14.00;99.90;;;;;;5051409;28;20040;-71
2023/05/09 01:45:31;;;;;;;10.65;7.65;;;14.00;99.90;;;;;;5077209;28;20049;-71
2023/05/09 01:47:58;;;;;;;9.15;7.00;;;14.10;99.90;;;;;;5062169;28;20047;-71
2023/05/09 01:50:25;;;;;;;9.32;7.32;;;14.20;99.90;;;;;;5044447;28;20051;-71
2023/05/09 01:52:54;;;;;;;9.43;7.20;;;14.20;99.90;;;;;;5059732;28;20063;-71
2023/05/09 01:55:24;;;;;;;9.38;7.10;;;14.20;99.90;;;;;;5045548;28;20049;-71
2023/05/09 01:57:51;;;;;;;8.20;6.90;;;14.30;99.90;;;;;;5059526;28;20056;-71
2023/05/09 02:00:18;;;;;;;9.02;6.90;;;14.30;99.90;;;;;;5061372;28;20044;-71
2023/05/09 02:02:45;;;;;;;9.57;7.13;;;14.30;99.90;;;;;;5060575;28;20048;-71
2023/05/09 02:05:11;;;;;;;9.95;7.20;;;14.20;99.90;;;;;;5059818;28;20051;-71
2023/05/09 02:07:38;;;;;;;9.30;7.00;;;14.30;99.90;;;;;;5044502;28;20105;-71
2023/05/09 02:10:07;;;;;;;8.95;7.00;;;14.30;99.90;;;;;;5059625;28;20037;-71
2023/05/09 02:12:33;;;;;;;8.23;6.60;;;14.30;99.90;;;;;;5062900;28;20120;-71
2023/05/09 02:14:59;;;;;;;9.60;7.20;;;14.20;99.90;;;;;;5048215;28;20479;-71
2023/05/09 02:17:25;;;;;;;9.80;6.88;;;14.20;99.90;;;;;;5072934;28;20036;-71
2023/05/09 02:19:50;;;;;;;10.50;7.07;;;14.20;99.90;;;;;;5027451;28;20043;-71
2023/05/09 02:22:16;;;;;;;9.23;6.93;;;14.20;99.90;;;;;;5050356;28;20505;-71
2023/05/09 02:24:44;;;;;;;8.30;7.10;;;14.20;99.90;;;;;;5043715;28;20037;-71
2023/05/09 02:27:11;;;;;;;10.73;6.95;;;14.20;99.90;;;;;;5059175;28;20080;-71
2023/05/09 02:29:48;;;;;;;9.07;7.38;;;14.20;99.90;;;;;;5044432;28;20045;-71
2023/05/09 02:32:24;;;;;;;9.15;7.30;;;14.20;99.90;;;;;;5066531;28;20045;-71
2023/05/09 02:34:51;;;;;;;9.93;8.20;;;14.20;99.90;;;;;;5073894;28;20063;-71
2023/05/09 02:37:18;;;;;;;9.80;7.50;;;14.20;99.90;;;;;;5063277;28;20105;-71
2023/05/09 02:39:44;;;;;;;9.85;7.88;;;14.20;99.90;;;;;;5042473;28;20041;-71
2023/05/09 02:42:12;;;;;;;9.38;7.10;;;14.20;99.90;;;;;;5044742;28;20048;-71
2023/05/09 02:44:38;;;;;;;10.13;7.85;;;14.20;99.90;;;;;;5041162;28;20105;-71
2023/05/09 02:47:05;;;;;;;10.48;8.18;;;14.20;99.90;;;;;;5043075;28;20051;-71
2023/05/09 02:49:31;;;;;;;9.80;7.80;;;14.20;99.90;;;;;;5045886;28;20080;-71
2023/05/09 02:51:57;;;;;;;11.15;8.77;;;14.20;99.90;;;;;;5043364;28;20562;-69
2023/05/09 02:54:23;;;;;;;10.77;8.27;;;14.30;99.90;;;;;;5040733;28;20100;-71
2023/05/09 02:56:48;;;;;;;12.07;8.77;;;14.30;99.90;;;;;;5071872;28;20124;-72
2023/05/09 02:59:15;;;;;;;10.52;8.60;;;14.30;99.90;;;;;;5045097;28;20048;-71
2023/05/09 03:01:41;;;;;;;10.77;8.77;;;14.30;99.90;;;;;;5041833;28;20089;-71
2023/05/09 03:04:06;;;;;;;11.95;9.30;;;14.30;99.90;;;;;;5035858;28;20041;-71
2023/05/09 03:06:32;;;;;;;13.63;10.73;;;14.30;99.90;;;;;;5066701;28;20048;-71
2023/05/09 03:08:58;;;;;;;14.27;10.23;;;14.30;99.90;;;;;;5032734;28;20044;-71
2023/05/09 03:11:24;;;;;;;14.30;10.93;;;14.30;99.90;;;;;;5059075;28;20061;-71
2023/05/09 03:13:49;;;;;;;14.18;11.50;;;14.20;99.90;;;;;;5033690;28;20045;-72
2023/05/09 03:16:17;;;;;;;14.63;11.73;;;14.30;99.90;;;;;;5059971;28;20045;-72
2023/05/09 03:18:43;;;;;;;14.55;11.55;;;14.30;99.90;;;;;;5058380;28;20485;-72
2023/05/09 03:21:08;;;;;;;14.77;11.60;;;14.20;99.90;;;;;;5048331;28;20060;-72
2023/05/09 03:23:34;;;;;;;13.57;10.90;;;14.20;99.90;;;;;;5069949;28;20040;-72
2023/05/09 03:26:00;;;;;;;12.65;10.48;;;14.20;99.90;;;;;;5061849;28;20090;-72
2023/05/09 03:28:27;;;;;;;18.23;11.27;;;14.20;99.90;;;;;;5040920;28;20071;-72
2023/05/09 03:30:53;;;;;;;14.35;10.90;;;14.20;99.90;;;;;;5045227;28;20049;-72
2023/05/09 03:33:19;;;;;;;16.40;10.88;;;14.20;99.90;;;;;;5059316;28;20068;-71
2023/05/09 03:35:45;;;;;;;13.80;10.82;;;14.20;99.90;;;;;;5074517;28;20041;-72
2023/05/09 03:38:11;;;;;;;15.48;11.13;;;14.20;99.90;;;;;;5061917;28;20055;-72
2023/05/09 03:40:37;;;;;;;15.60;11.65;;;14.20;99.90;;;;;;5024621;28;20075;-72
2023/05/09 03:43:02;;;;;;;17.73;12.32;;;14.20;99.90;;;;;;5064511;28;20066;-72
2023/05/09 03:45:28;;;;;;;15.40;11.38;;;14.20;99.90;;;;;;5027335;28;20072;-72
2023/05/09 03:47:54;;;;;;;15.82;10.88;;;14.20;99.90;;;;;;5058514;28;20144;-72
2023/05/09 03:50:19;;;;;;;14.38;10.82;;;14.20;99.90;;;;;;5044475;28;20436;-72
2023/05/09 03:52:45;;;;;;;15.98;11.18;;;14.20;99.90;;;;;;5041022;28;20068;-72
2023/05/09 03:55:11;;;;;;;14.82;11.07;;;14.20;99.90;;;;;;5027102;28;20045;-72
2023/05/09 03:57:37;;;;;;;14.18;10.93;;;14.20;99.90;;;;;;5039978;28;20111;-71
2023/05/09 04:00:05;;;;;;;13.57;10.73;;;14.20;99.90;;;;;;5042297;28;20616;-72
2023/05/09 04:02:32;;;;;;;15.90;11.40;;;14.20;99.90;;;;;;5056881;28;20055;-71
2023/05/09 04:04:59;;;;;;;17.52;11.90;;;14.20;99.90;;;;;;5040946;28;20105;-72
2023/05/09 04:07:27;;;;;;;15.38;11.50;;;14.20;99.90;;;;;;5041149;28;20037;-72
2023/05/09 04:09:57;;;;;;;15.90;11.50;;;14.20;99.90;;;;;;5068738;28;20057;-72
2023/05/09 04:12:23;;;;;;;13.80;10.63;;;14.20;99.90;;;;;;5069461;28;20051;-72
2023/05/09 04:14:48;;;;;;;15.95;11.75;;;14.20;99.90;;;;;;5024090;28;20044;-71
2023/05/09 04:17:14;;;;;;;14.65;10.45;;;14.20;99.90;;;;;;5033021;28;20045;-72
2023/05/09 04:19:40;;;;;;;15.48;10.68;;;14.20;99.90;;;;;;5042601;28;20044;-72
2023/05/09 04:22:05;;;;;;;15.80;10.95;;;14.20;99.90;;;;;;5034850;28;21012;-72
2023/05/09 04:24:31;;;;;;;15.60;11.52;;;14.10;99.90;;;;;;5028426;28;20040;-72
2023/05/09 04:26:57;;;;;;;14.90;10.85;;;14.10;99.90;;;;;;5046565;28;20056;-72
2023/05/09 04:29:22;;;;;;;15.25;11.80;;;14.10;99.90;;;;;;5024423;28;20103;-72
2023/05/09 04:31:48;;;;;;;16.05;11.38;;;14.10;99.90;;;;;;5043496;28;20365;-72
2023/05/09 04:34:14;;;;;;;15.98;11.60;;;14.10;99.90;;;;;;5045213;28;20048;-70
2023/05/09 04:36:40;;;;;;;15.63;10.95;;;14.10;99.90;;;;;;5025204;28;20048;-70
2023/05/09 04:39:07;;;;;;;16.67;12.70;;;14.10;99.90;;;;;;5054141;28;20044;-70
2023/05/09 04:41:32;;;;;;;18.42;12.60;;;14.10;99.90;;;;;;5041208;28;20041;-70
2023/05/09 04:43:58;;;;;;;18.23;13.38;;;14.10;99.90;;;;;;5039966;28;20404;-70
2023/05/09 04:46:24;;;;;;;17.30;12.70;;;14.10;99.90;;;;;;5041557;28;20040;-71
2023/05/09 04:48:50;;;;;;;17.27;12.50;;;14.20;99.90;;;;;;5058460;28;20052;-70
2023/05/09 04:51:16;;;;;;;18.70;13.98;;;14.20;99.90;;;;;;5072198;28;20041;-71
2023/05/09 04:53:41;;;;;;;17.05;13.02;;;14.20;99.90;;;;;;5040423;28;20044;-70
2023/05/09 04:56:07;;;;;;;19.45;14.13;;;14.20;99.90;;;;;;5037537;28;20543;-71
2023/05/09 04:58:37;;;;;;;19.17;13.57;;;14.20;99.90;;;;;;5043950;28;20040;-70
2023/05/09 05:01:04;;;;;;;18.58;13.50;;;14.20;99.90;;;;;;5041420;28;20041;-71
2023/05/09 05:03:30;;;;;;;17.92;12.90;;;14.30;99.90;;;;;;5041807;28;20045;-71
2023/05/09 05:05:55;;;;;;;20.05;12.68;;;14.30;99.90;;;;;;5038841;28;20048;-71
2023/05/09 05:08:21;;;;;;;18.02;13.38;;;14.30;99.90;;;;;;5044656;28;20040;-72
2023/05/09 05:10:48;;;;;;;17.67;12.55;;;14.40;99.90;;;;;;5035776;28;20041;-72
2023/05/09 05:13:14;;;;;;;19.15;12.85;;;14.50;99.90;;;;;;5048973;28;20032;-72
2023/05/09 05:15:40;;;;;;;18.38;12.88;;;14.50;99.90;;;;;;5054880;28;20045;-72
2023/05/09 05:18:06;;;;;;;19.17;13.50;;;14.60;99.90;;;;;;5044179;28;20123;-72
2023/05/09 05:20:32;;;;;;;18.20;13.45;;;14.70;99.90;;;;;;5049921;28;20035;-72
2023/05/09 05:22:58;;;;;;;17.83;13.80;;;14.70;99.90;;;;;;5061693;28;20044;-72
2023/05/09 05:25:24;;;;;;;18.25;13.80;;;14.70;99.90;;;;;;5029277;28;20041;-73
2023/05/09 05:27:50;;;;;;;19.20;13.50;;;14.80;99.90;;;;;;5037265;28;20056;-73
2023/05/09 05:30:16;;;;;;;17.38;13.43;;;14.80;99.90;;;;;;5044936;28;20048;-73
2023/05/09 05:32:42;;;;;;;18.30;13.77;;;14.90;99.90;;;;;;5044056;28;20135;-72
2023/05/09 05:35:12;;;;;;;20.48;14.82;;;14.90;99.90;;;;;;5060792;28;20053;-72
2023/05/09 05:37:39;;;;;;;18.98;14.18;;;14.90;99.90;;;;;;5045832;28;20036;-72
2023/05/09 05:40:06;;;;;;;18.58;14.00;;;14.90;99.90;;;;;;5049617;28;20049;-72
2023/05/09 05:42:32;;;;;;;19.77;13.88;;;14.90;99.90;;;;;;5067951;28;20044;-72
2023/05/09 05:45:03;;;;;;;19.42;14.35;;;15.00;99.90;;;;;;5060352;28;20589;-72
2023/05/09 05:47:33;;;;;;;20.08;13.88;;;15.00;99.90;;;;;;5062563;28;20412;-72
2023/05/09 05:49:59;;;;;;;18.90;13.32;;;14.90;99.90;;;;;;5044293;28;20514;-71
2023/05/09 05:52:26;;;;;;;19.70;14.38;;;15.00;99.90;;;;;;5062705;28;20037;-72
2023/05/09 05:54:53;;;;;;;18.17;13.32;;;14.90;99.90;;;;;;5052367;28;20052;-72
2023/05/09 05:57:19;;;;;;;19.63;13.65;;;15.00;99.90;;;;;;5063016;28;20292;-72
2023/05/09 05:59:49;;;;;;;18.08;13.35;;;15.00;99.90;;;;;;5048323;28;20048;-72
2023/05/09 06:02:18;;;;;;;18.60;14.30;;;14.90;99.90;;;;;;5051480;28;20096;-71
2023/05/09 06:04:44;;;;;;;19.30;14.40;;;14.90;99.90;;;;;;5060617;28;20578;-72
2023/05/09 06:07:11;;;;;;;18.85;14.18;;;14.90;99.90;;;;;;5060643;28;20053;-71
2023/05/09 06:09:37;;;;;;;19.80;13.30;;;14.90;99.90;;;;;;5067143;28;20045;-72
2023/05/09 06:12:03;;;;;;;20.60;13.60;;;15.00;99.90;;;;;;5054803;28;20049;-72
2023/05/09 06:14:29;;;;;;;19.17;14.07;;;15.00;99.90;;;;;;5064514;28;20037;-72
2023/05/09 06:16:55;;;;;;;18.67;13.88;;;15.00;99.90;;;;;;5035663;28;20044;-72
2023/05/09 06:19:21;;;;;;;18.58;13.07;;;15.00;99.90;;;;;;5046453;28;20041;-72
2023/05/09 06:21:46;;;;;;;18.77;14.82;;;15.10;99.90;;;;;;5063025;28;20048;-72
2023/05/09 06:24:12;;;;;;;17.77;13.82;;;15.00;99.90;;;;;;5048772;28;20075;-72
2023/05/09 06:26:38;;;;;;;17.88;13.52;;;15.10;99.90;;;;;;5042466;28;20049;-72
2023/05/09 06:29:07;;;;;;;19.08;13.65;;;15.10;99.90;;;;;;5060729;28;20045;-71
2023/05/09 06:31:37;;;;;;;21.35;14.75;;;15.10;99.90;;;;;;5067852;28;20037;-71
2023/05/09 06:34:06;;;;;;;19.15;13.85;;;15.10;99.90;;;;;;5060683;28;20055;-72
2023/05/09 06:36:32;;;;;;;17.95;13.27;;;15.20;99.90;;;;;;5037940;28;20079;-72
2023/05/09 06:38:58;;;;;;;17.92;13.85;;;15.20;99.90;;;;;;5050073;28;20049;-72
2023/05/09 06:41:23;;;;;;;19.42;13.90;;;15.30;99.90;;;;;;5027384;28;20565;-71
2023/05/09 06:43:49;;;;;;;18.08;14.30;;;15.30;99.90;;;;;;5060621;28;20083;-71
2023/05/09 06:46:15;;;;;;;20.15;13.00;;;15.40;99.90;;;;;;5054481;28;20033;-71
2023/05/09 06:48:41;;;;;;;16.98;13.85;;;15.40;99.90;;;;;;5032455;28;20133;-70
2023/05/09 06:51:07;;;;;;;18.10;13.50;;;15.40;99.90;;;;;;5051195;28;20477;-69
2023/05/09 06:53:32;;;;;;;20.13;14.00;;;15.50;99.90;;;;;;5042353;28;20099;-69
2023/05/09 06:55:58;;;;;;;16.85;13.07;;;15.50;99.90;;;;;;5059646;28;20045;-70
2023/05/09 06:58:24;;;;;;;16.95;13.32;;;15.50;99.90;;;;;;5043284;28;20029;-70
2023/05/09 07:00:50;;;;;;;19.30;14.43;;;15.50;99.90;;;;;;5042362;28;20037;-69
2023/05/09 07:03:16;;;;;;;18.05;13.98;;;15.50;99.90;;;;;;5066043;28;20489;-70
2023/05/09 07:05:41;;;;;;;18.85;13.77;;;15.50;99.90;;;;;;5065718;28;20028;-70
2023/05/09 07:08:07;;;;;;;18.45;13.52;;;15.50;99.90;;;;;;5065200;28;20033;-70
2023/05/09 07:10:33;;;;;;;21.13;14.50;;;15.50;99.90;;;;;;5043871;28;20049;-70
2023/05/09 07:12:58;;;;;;;18.00;13.50;;;15.50;99.90;;;;;;5046246;28;20064;-70
2023/05/09 07:15:24;;;;;;;18.48;14.43;;;15.50;99.90;;;;;;5050470;28;20040;-70
2023/05/09 07:17:51;;;;;;;20.80;14.85;;;15.50;99.90;;;;;;5022424;28;20053;-70
2023/05/09 07:20:17;;;;;;;19.52;15.07;;;15.60;99.90;;;;;;5062735;28;20138;-69
2023/05/09 07:22:42;;;;;;;16.85;13.30;;;15.50;99.90;;;;;;5069802;28;20401;-70
2023/05/09 07:25:09;;;;;;;20.92;14.88;;;15.50;99.90;;;;;;5033609;28;20448;-69
2023/05/09 07:27:35;;;;;;;21.90;15.20;;;15.50;99.90;;;;;;5051661;28;20088;-70
2023/05/09 07:30:06;;;;;;;21.38;15.40;;;15.40;99.90;;;;;;5044630;28;20029;-69
2023/05/09 07:32:32;;;;;;;23.30;15.30;;;15.40;99.90;;;;;;5049779;28;20040;-70
2023/05/09 07:34:58;;;;;;;21.90;15.05;;;15.40;99.90;;;;;;5042875;28;20079;-69
2023/05/09 07:37:24;;;;;;;20.13;14.68;;;15.40;99.90;;;;;;5040215;28;20111;-69
2023/05/09 07:39:50;;;;;;;22.27;15.68;;;15.40;99.90;;;;;;5051742;28;20037;-70
2023/05/09 07:42:16;;;;;;;21.15;15.07;;;15.40;99.90;;;;;;5059036;28;20041;-69
2023/05/09 07:44:42;;;;;;;21.75;15.20;;;15.40;99.90;;;;;;5056966;28;20037;-69
2023/05/09 07:47:08;;;;;;;20.63;15.52;;;15.40;99.90;;;;;;5059734;28;20048;-69
2023/05/09 07:49:34;;;;;;;20.50;15.38;;;15.50;99.90;;;;;;5057774;28;20041;-69
2023/05/09 07:52:00;;;;;;;22.70;15.55;;;15.50;99.90;;;;;;5059526;28;20041;-70
2023/05/09 07:54:26;;;;;;;23.23;15.55;;;15.60;99.90;;;;;;5058194;28;20047;-70
2023/05/09 07:56:52;;;;;;;22.67;16.00;;;15.70;99.90;;;;;;5040127;28;20033;-71
2023/05/09 07:59:18;;;;;;;22.52;14.98;;;15.80;99.90;;;;;;5043116;28;20484;-70
2023/05/09 08:01:44;;;;;;;22.58;15.77;;;15.80;99.90;;;;;;5044050;28;20051;-70
2023/05/09 08:04:10;;;;;;;23.50;16.05;;;15.90;99.90;;;;;;5044135;28;20449;-70
2023/05/09 08:06:36;;;;;;;22.88;15.55;;;15.90;99.90;;;;;;5057874;28;20040;-70
2023/05/09 08:09:01;;;;;;;21.67;16.23;;;16.00;99.90;;;;;;5061786;28;20043;-70
2023/05/09 08:11:27;;;;;;;24.65;16.50;;;16.10;99.90;;;;;;5047451;28;20029;-70
2023/05/09 08:13:53;;;;;;;22.80;16.05;;;16.10;99.90;;;;;;5076386;28;20657;-70
2023/05/09 08:16:19;;;;;;;22.83;16.25;;;16.20;99.90;;;;;;5049443;28;20123;-70
2023/05/09 08:18:45;;;;;;;22.90;16.20;;;16.30;99.90;;;;;;5048016;28;20053;-71
2023/05/09 08:21:11;;;;;;;26.70;16.58;;;16.40;99.90;;;;;;5045240;28;20033;-70
2023/05/09 08:23:37;;;;;;;26.92;17.55;;;16.50;99.90;;;;;;5055275;28;20067;-69
2023/05/09 08:26:02;;;;;;;27.73;17.48;;;16.60;99.90;;;;;;5057988;28;20036;-70
2023/05/09 08:28:28;;;;;;;27.83;17.40;;;16.70;99.90;;;;;;5034118;28;20093;-70
2023/05/09 08:30:55;;;;;;;27.00;17.52;;;16.80;99.90;;;;;;5065858;28;20045;-70
2023/05/09 08:33:21;;;;;;;28.08;17.63;;;17.00;99.90;;;;;;5065860;28;20053;-70
2023/05/09 08:35:52;;;;;;;29.20;17.65;;;17.10;99.90;;;;;;5039730;28;20049;-71
2023/05/09 08:38:18;;;;;;;27.58;17.33;;;17.10;99.90;;;;;;5067988;28;20076;-70
2023/05/09 08:40:44;;;;;;;24.08;16.85;;;17.10;99.90;;;;;;5076577;28;20055;-70
2023/05/09 08:43:11;;;;;;;27.80;17.73;;;17.10;99.90;;;;;;5059848;28;20057;-70
2023/05/09 08:45:56;;;;;;;25.70;16.40;;;17.00;99.90;;;;;;5060025;28;20044;-70
2023/05/09 08:48:22;;;;;;;23.98;15.75;;;17.00;99.90;;;;;;5059142;28;20048;-70
2023/05/09 08:50:49;;;;;;;28.20;17.80;;;16.90;99.90;;;;;;5061700;28;20055;-70
2023/05/09 08:53:15;;;;;;;30.00;18.48;;;16.90;99.90;;;;;;5076185;28;20052;-69
2023/05/09 08:55:41;;;;;;;26.92;17.20;;;17.00;99.90;;;;;;5061522;28;20053;-70
2023/05/09 08:58:08;;;;;;;28.55;17.75;;;17.10;99.90;;;;;;5059118;28;20052;-70
2023/05/09 09:00:36;;;;;;;26.17;17.48;;;17.10;99.90;;;;;;5060144;28;20048;-70
2023/05/09 09:03:05;;;;;;;27.25;17.98;;;17.20;99.90;;;;;;5060936;28;20044;-70
2023/05/09 09:05:33;;;;;;;27.67;17.85;;;17.30;99.90;;;;;;5060092;28;20048;-70
2023/05/09 09:07:59;;;;;;;28.75;18.20;;;17.40;99.90;;;;;;5078214;28;20049;-70
2023/05/09 09:10:30;;;;;;;26.92;17.00;;;17.40;99.90;;;;;;5075965;28;20049;-68
2023/05/09 09:12:58;;;;;;;27.77;17.65;;;17.40;99.90;;;;;;5076827;28;20123;-70
2023/05/09 09:15:27;;;;;;;26.92;17.10;;;17.40;99.90;;;;;;5060366;28;20083;-70
2023/05/09 09:17:57;;;;;;;28.65;18.02;;;17.30;99.90;;;;;;5077878;28;20037;-71
2023/05/09 09:20:26;;;;;;;29.42;17.75;;;17.20;99.90;;;;;;5060664;28;20047;-70
2023/05/09 09:22:58;;;;;;;26.70;17.70;;;17.20;99.90;;;;;;5075204;28;20071;-69
2023/05/09 09:25:24;;;;;;;30.30;18.35;;;17.20;99.90;;;;;;5061690;28;20131;-69
2023/05/09 09:27:50;;;;;;;26.95;17.52;;;17.30;99.90;;;;;;5077567;28;20048;-69
2023/05/09 09:30:16;;;;;;;25.98;17.30;;;17.40;99.90;;;;;;5078298;28;20052;-70
2023/05/09 09:32:42;;;;;;;27.67;18.13;;;17.50;99.90;;;;;;5060320;28;20366;-69
2023/05/09 09:35:10;;;;;;;27.50;18.85;;;17.60;99.90;;;;;;5026654;28;20461;-70
2023/05/09 09:37:42;;;;;;;27.98;18.13;;;17.60;99.90;;;;;;5076662;28;20041;-70
2023/05/09 09:40:09;;;;;;;27.40;17.60;;;17.60;99.90;;;;;;5076407;28;20484;-71
2023/05/09 09:42:46;;;;;;;26.60;17.98;;;17.70;99.90;;;;;;5077868;28;20053;-70
2023/05/09 09:45:15;;;;;;;25.10;18.45;;;17.80;99.90;;;;;;5059691;28;20511;-71
2023/05/09 09:47:43;;;;;;;24.70;16.80;;;17.90;99.90;;;;;;5075905;28;20657;-70
2023/05/09 09:50:21;;;;;;;25.50;17.33;;;17.90;99.90;;;;;;5071917;28;20052;-70
2023/05/09 09:52:55;;;;;;;26.80;18.65;;;18.00;99.90;;;;;;5072790;28;20098;-70
2023/05/09 09:55:22;;;;;;;27.52;19.02;;;18.10;99.90;;;;;;5047691;28;20137;-70
2023/05/09 09:57:49;;;;;;;27.58;18.05;;;18.10;99.90;;;;;;5062868;28;20052;-71
2023/05/09 10:00:17;;;;;;;30.42;19.05;;;18.10;99.90;;;;;;5064877;28;20072;-71
2023/05/09 10:02:48;;;;;;;29.17;18.45;;;18.00;99.90;;;;;;5064790;28;20066;-71
2023/05/09 10:05:24;;;;;;;28.88;17.77;;;17.80;99.90;;;;;;5081440;28;20044;-71
2023/05/09 10:08:01;;;;;;;29.60;18.42;;;17.70;99.90;;;;;;5048059;28;20036;-71
2023/05/09 10:10:29;;;;;;;29.60;19.45;;;17.60;99.90;;;;;;5046699;28;20078;-71
2023/05/09 10:13:04;;;;;;;30.27;19.73;;;17.60;99.90;;;;;;5079929;28;20045;-70
2023/05/09 10:15:31;;;;;;;29.73;18.75;;;17.60;99.90;;;;;;5080152;28;20056;-71
2023/05/09 10:17:59;;;;;;;31.48;19.45;;;17.70;99.90;;;;;;5047032;28;20045;-70
2023/05/09 10:20:27;;;;;;;30.52;20.40;;;17.70;99.90;;;;;;5064007;28;20630;-71
2023/05/09 10:23:02;;;;;;;34.17;20.33;;;17.70;99.90;;;;;;5078703;28;20071;-70
2023/05/09 10:25:38;;;;;;;33.28;20.13;;;17.90;99.90;;;;;;5081236;28;20124;-70
2023/05/09 10:28:09;;;;;;;31.92;19.65;;;18.20;99.90;;;;;;5079333;28;20066;-69
2023/05/09 10:30:59;;;;;;;29.92;19.27;;;18.50;99.90;;;;;;5079576;28;20084;-70
2023/05/09 10:33:30;;;;;;;31.17;19.73;;;18.70;99.90;;;;;;5046296;28;20055;-70
2023/05/09 10:35:57;;;;;;;30.05;20.10;;;19.00;99.90;;;;;;5080130;28;20571;-68
2023/05/09 10:38:24;;;;;;;32.13;20.17;;;19.10;99.90;;;;;;5080732;28;20036;-69
2023/05/09 10:40:50;;;;;;;30.00;19.17;;;19.30;99.90;;;;;;5081089;28;20040;-69
2023/05/09 10:43:16;;;;;;;34.63;20.27;;;19.50;99.90;;;;;;5079578;28;20108;-71
2023/05/09 10:45:43;;;;;;;30.63;18.92;;;19.60;99.90;;;;;;5063759;28;20072;-71
2023/05/09 10:48:10;;;;;;;34.45;20.17;;;19.60;99.90;;;;;;5079812;28;20045;-71
2023/05/09 10:50:39;;;;;;;32.90;19.67;;;19.70;99.90;;;;;;5065142;28;20062;-70
2023/05/09 10:53:09;;;;;;;33.42;19.88;;;19.70;99.90;;;;;;5081814;28;20044;-71
2023/05/09 10:55:50;;;;;;;31.27;20.23;;;19.60;99.90;;;;;;5082088;28;20036;-69
2023/05/09 10:58:32;;;;;;;34.58;20.83;;;19.40;99.90;;;;;;5064134;28;20076;-70
2023/05/09 11:00:59;;;;;;;39.47;21.50;;;19.30;99.90;;;;;;5082718;28;20110;-71
2023/05/09 11:03:27;;;;;;;35.60;21.45;;;19.10;99.90;;;;;;5066118;28;20079;-70
2023/05/09 11:05:55;;;;;;;37.63;22.90;;;19.10;99.90;;;;;;5061848;28;20462;-71
2023/05/09 11:08:26;;;;;;;37.78;22.10;;;19.10;99.90;;;;;;5080107;28;20138;-71
2023/05/09 11:10:53;;;;;;;39.67;22.70;;;19.20;99.90;;;;;;5078951;28;20036;-69
2023/05/09 11:13:22;;;;;;;36.83;21.40;;;19.30;99.90;;;;;;5061367;28;20040;-70
2023/05/09 11:16:00;;;;;;;43.33;24.75;;;19.30;99.90;;;;;;5079352;28;20055;-70
2023/05/09 11:18:27;;;;;;;40.90;22.42;;;19.30;99.90;;;;;;5061497;28;20049;-70
2023/05/09 11:20:54;;;;;;;41.00;23.92;;;19.40;99.90;;;;;;5079940;28;20162;-71
2023/05/09 11:23:24;;;;;;;39.13;22.55;;;19.60;99.90;;;;;;5077394;28;20220;-69
2023/05/09 11:25:50;;;;;;;41.90;23.70;;;19.80;99.90;;;;;;5072368;28;20052;-71
2023/05/09 11:28:29;;;;;;;39.15;22.80;;;20.10;99.90;;;;;;5049974;28;20045;-70
2023/05/09 11:31:14;;;;;;;34.65;21.80;;;20.50;99.90;;;;;;5068471;28;20053;-72
2023/05/09 11:33:42;;;;;;;38.53;23.02;;;20.70;99.90;;;;;;5069179;28;20057;-71
2023/05/09 11:36:33;;;;;;;40.80;23.15;;;20.90;99.90;;;;;;5049142;28;20053;-71
2023/05/09 11:39:07;;;;;;;39.67;22.70;;;21.00;99.90;;;;;;5066193;28;20052;-71
2023/05/09 11:41:42;;;;;;;40.55;23.95;;;21.00;99.90;;;;;;5067943;28;20114;-71
2023/05/09 11:44:15;;;;;;;40.85;23.17;;;20.80;99.90;;;;;;5065869;28;20131;-71
2023/05/09 11:46:42;;;;;;;38.95;23.45;;;20.70;99.90;;;;;;5052259;28;20044;-72
2023/05/09 11:49:07;;;;;;;36.17;22.75;;;20.50;99.90;;;;;;5051561;28;20075;-70
2023/05/09 11:51:37;;;;;;;38.50;22.90;;;20.30;99.90;;;;;;5050190;28;20040;-71
2023/05/09 11:54:06;;;;;;;39.60;23.48;;;20.00;99.90;;;;;;5067742;28;20055;-70
2023/05/09 11:56:38;;;;;;;39.63;23.65;;;19.80;99.90;;;;;;5051289;28;20075;-70
2023/05/09 11:59:05;;;;;;;37.00;22.98;;;19.60;99.90;;;;;;5070619;28;20045;-71
2023/05/09 12:01:31;;;;;;;43.47;24.42;;;19.50;99.90;;;;;;5065417;28;20045;-70
2023/05/09 12:03:58;;;;;;;41.88;25.92;;;19.40;99.90;;;;;;5070065;28;20079;-70
2023/05/09 12:06:25;;;;;;;47.22;27.13;;;19.30;99.90;;;;;;5047410;28;20045;-71
2023/05/09 12:08:51;;;;;;;42.40;25.38;;;19.10;99.90;;;;;;5053506;28;20055;-69
2023/05/09 12:11:17;;;;;;;45.40;26.63;;;19.00;99.90;;;;;;5078656;28;20083;-71
2023/05/09 12:13:51;;;;;;;47.53;25.60;;;18.80;99.90;;;;;;5076990;28;20067;-70
2023/05/09 12:16:18;;;;;;;45.08;25.50;;;18.80;99.90;;;;;;5073446;28;20700;-70
2023/05/09 12:18:48;;;;;;;44.53;26.15;;;18.70;99.90;;;;;;5045234;28;20048;-69
2023/05/09 12:21:15;;;;;;;44.70;25.67;;;18.60;99.90;;;;;;5078709;28;20587;-70
2023/05/09 12:23:40;;;;;;;45.65;25.40;;;18.50;99.90;;;;;;5076908;28;20040;-70
2023/05/09 12:26:06;;;;;;;42.78;25.88;;;18.50;99.90;;;;;;5077518;28;20129;-70
2023/05/09 12:28:33;;;;;;;47.22;26.08;;;18.60;99.90;;;;;;5077836;28;20041;-71
2023/05/09 12:30:59;;;;;;;43.83;26.15;;;18.70;99.90;;;;;;5060131;28;20112;-70
2023/05/09 12:33:25;;;;;;;43.75;26.42;;;18.70;99.90;;;;;;5062046;28;20498;-68